ENHD/HAU METAR and TAF weather

Enter ICAO airport designator
Station Type Date Time Source
ENHD METAR 2018/04/26 14:50 UTC NOAA

ENHD 261450Z 20010KT 9999 SCT007 BKN047 09/06 Q1002


Station Type Date Time Source
ENHD Decoded METAR 2018/04/26 14:50 UTC NOAA

Haugesund / Karmoy, Norway (ENHD) 59-21N 005-13E 24M
Apr 26, 2018 - 10:50 AM EDT / 2018.04.26 1450 UTC
Wind: from the SSW (200 degrees) at 12 MPH (10 KT):0
Visibility: greater than 7 mile(s):0
Sky conditions: mostly cloudy
Temperature: 48 F (9 C)
Dew Point: 42 F (6 C)
Relative Humidity: 81%
Pressure (altimeter): 29.59 in. Hg (1002 hPa)
ob: ENHD 261450Z 20010KT 9999 SCT007 BKN047 09/06 Q1002
cycle: 15

Station Type Date Time Source
ENHD TAF UTC NOAA

Error!


Example: see airport list